Terminal Aerodrome Forecast
Issued by NWS

Home | Current Version | Previous Version | Text Only | Print | Product List | Glossary Off
Versions: 1 2 3 4 5 6 7 8 9 10 11 12 13 14 15 16

000
FTUS43 KMPX 281501 AAA
TAFRWF
TAF AMD
KRWF 281501Z 2815/2912 36010KT P6SM SCT020 BKN250
      TEMPO 2815/2817 BKN020
     FM281800 02007KT P6SM OVC200=

USA.gov is the U.S. government's official web portal to all federal, state and local government web resources and services.